Time;durP1;ratioP1;P1;durP2;ratioP2;P2;SDS_P1;SDS_P2;PMS_P1;PMS_P2;Temp;Humidity;BMP_temperature;BMP_pressure;BME280_temperature;BME280_humidity;BME280_pressure;Samples;Min_cycle;Max_cycle;Signal;HPM_P1;HPM_P2
2021/12/07 00:00:49;;;;;;;8.87;1.27;;;;;;;16.11;66.21;97767.53;5136840;27;20173;-88
2021/12/07 00:03:15;;;;;;;1.93;0.63;;;;;;;16.15;65.47;97756.50;5137274;27;20196;-89
2021/12/07 00:05:40;;;;;;;3.10;1.10;;;;;;;16.27;65.31;97755.28;5118501;27;20654;-88
2021/12/07 00:08:06;;;;;;;2.70;0.47;;;;;;;16.32;64.92;97758.34;5136709;27;20203;-88
2021/12/07 00:10:32;;;;;;;2.37;0.60;;;;;;;16.17;65.11;97754.53;5136577;27;20242;-88
2021/12/07 00:12:58;;;;;;;4.07;0.90;;;;;;;16.19;65.35;97757.88;5118503;27;20634;-88
2021/12/07 00:15:24;;;;;;;23.37;1.67;;;;;;;16.17;65.23;97743.97;5118288;27;20242;-88
2021/12/07 00:17:50;;;;;;;2.07;0.60;;;;;;;16.31;64.93;97747.91;5136779;27;20188;-88
2021/12/07 00:20:18;;;;;;;4.70;0.80;;;;;;;16.37;64.72;97744.66;5136404;27;20618;-88
2021/12/07 00:22:47;;;;;;;7.70;1.50;;;;;;;16.30;64.98;97739.13;5117924;28;20174;-87
2021/12/07 00:25:14;;;;;;;1.73;0.60;;;;;;;16.36;64.91;97743.84;5118442;27;20194;-88
2021/12/07 00:27:39;;;;;;;7.27;0.97;;;;;;;16.05;66.02;97741.69;5136172;27;20273;-88
2021/12/07 00:30:07;;;;;;;3.87;0.70;;;;;;;16.14;65.87;97741.59;5136198;27;20180;-88
2021/12/07 00:32:37;;;;;;;2.37;0.60;;;;;;;16.19;65.74;97736.72;5136030;27;20171;-88
2021/12/07 00:35:33;;;;;;;8.17;0.83;;;;;;;16.45;64.99;97739.47;5118793;27;20159;-88
2021/12/07 00:38:00;;;;;;;11.00;1.10;;;;;;;16.49;64.55;97741.66;5117957;27;20178;-88
2021/12/07 00:40:26;;;;;;;7.23;1.03;;;;;;;16.55;64.47;97733.16;5117868;27;20257;-88
2021/12/07 00:42:52;;;;;;;6.40;1.57;;;;;;;16.63;64.20;97728.91;5117860;27;20695;-89
2021/12/07 00:45:21;;;;;;;3.03;0.70;;;;;;;16.52;64.42;97722.88;5135923;27;20252;-88
2021/12/07 00:47:51;;;;;;;9.77;1.60;;;;;;;16.67;64.45;97709.91;5117767;27;20249;-88
2021/12/07 00:50:18;;;;;;;6.50;0.97;;;;;;;16.85;63.78;97700.13;5118141;27;20273;-88
2021/12/07 00:52:44;;;;;;;4.13;0.60;;;;;;;17.10;63.33;97706.44;5117664;27;20182;-88
2021/12/07 00:55:15;;;;;;;7.37;1.37;;;;;;;17.21;63.03;97711.47;5135644;27;20179;-88
2021/12/07 00:57:40;;;;;;;3.50;0.50;;;;;;;17.31;63.03;97698.94;5118776;27;20166;-88
2021/12/07 01:00:11;;;;;;;9.93;1.53;;;;;;;17.26;66.01;97690.66;5118175;27;20648;-88
2021/12/07 01:02:37;;;;;;;5.93;0.70;;;;;;;16.93;68.47;97692.25;5135929;27;20231;-88
2021/12/07 01:05:11;;;;;;;9.67;1.43;;;;;;;16.84;70.44;97695.00;5117404;27;20174;-89
2021/12/07 01:26:36;;;;;;;4.83;1.57;;;;;;;16.11;77.53;97702.28;5135255;27;20180;-87
2021/12/07 01:29:01;;;;;;;5.17;1.33;;;;;;;15.83;79.49;97698.00;5135330;27;20194;-87
2021/12/07 01:49:33;;;;;;;3.23;0.77;;;;;;;15.36;82.72;97642.63;5097997;27;20218;-87
2021/12/07 02:00:37;;;;;;;9.10;1.80;;;;;;;15.29;82.31;97631.00;5134688;27;20180;-87
2021/12/07 02:03:03;;;;;;;6.93;1.43;;;;;;;15.33;82.14;97620.97;5134978;27;20156;-87
2021/12/07 02:05:28;;;;;;;1.10;0.70;;;;;;;15.46;81.23;97618.03;5116507;28;20175;-87
2021/12/07 02:07:54;;;;;;;15.33;2.17;;;;;;;15.28;81.14;97624.03;5134228;27;20195;-86
2021/12/07 02:10:24;;;;;;;11.23;1.07;;;;;;;15.12;82.50;97623.03;5134306;27;20640;-86
2021/12/07 02:12:51;;;;;;;4.33;1.30;;;;;;;15.07;82.58;97615.53;5134838;27;20167;-86
2021/12/07 02:15:19;;;;;;;7.50;1.23;;;;;;;15.15;81.95;97620.91;5116156;28;20180;-86
2021/12/07 02:17:44;;;;;;;6.63;1.30;;;;;;;14.88;83.87;97615.63;5116047;28;20172;-87
2021/12/07 02:20:13;;;;;;;1.80;0.83;;;;;;;15.00;82.69;97614.47;5116389;28;20680;-86
2021/12/07 02:22:38;;;;;;;6.33;1.27;;;;;;;14.99;83.18;97610.13;5116125;28;20324;-87
2021/12/07 02:25:07;;;;;;;2.70;0.50;;;;;;;14.97;82.39;97611.25;5134029;28;20250;-87
2021/12/07 02:27:32;;;;;;;5.10;1.07;;;;;;;14.94;82.95;97607.09;5115923;28;20268;-87
2021/12/07 02:29:58;;;;;;;0.50;0.40;;;;;;;14.82;83.80;97600.38;5134617;28;20179;-87
2021/12/07 02:32:24;;;;;;;7.60;1.53;;;;;;;14.79;83.88;97600.66;5116039;28;20633;-86
2021/12/07 02:34:58;;;;;;;2.23;0.70;;;;;;;14.70;84.12;97607.59;5134009;28;20168;-86
2021/12/07 02:37:26;;;;;;;12.83;0.97;;;;;;;14.76;83.21;97603.56;5115976;28;20251;-87
2021/12/07 02:39:52;;;;;;;3.60;0.60;;;;;;;14.70;83.20;97609.44;5134002;28;20171;-87
2021/12/07 02:42:18;;;;;;;5.17;1.07;;;;;;;14.98;81.35;97608.50;5115870;28;20180;-86
2021/12/07 02:44:44;;;;;;;2.97;0.80;;;;;;;14.90;81.65;97597.00;5134196;28;20177;-86
2021/12/07 02:47:10;;;;;;;9.53;0.53;;;;;;;14.90;80.96;97597.84;5118009;27;20201;-86
2021/12/07 02:49:35;;;;;;;5.70;0.70;;;;;;;14.67;81.00;97593.91;5138205;27;20175;-86
2021/12/07 02:52:03;;;;;;;1.40;0.60;;;;;;;14.63;82.16;97587.22;5137946;27;20186;-88
2021/12/07 02:54:31;;;;;;;5.50;1.50;;;;;;;15.05;80.42;97591.09;5119756;27;20179;-88
2021/12/07 02:56:56;;;;;;;1.77;0.50;;;;;;;14.87;80.14;97587.56;5138084;27;20218;-87
2021/12/07 02:59:23;;;;;;;7.60;1.40;;;;;;;14.52;81.84;97590.03;5138336;27;20241;-87
2021/12/07 03:01:57;;;;;;;4.73;0.50;;;;;;;14.46;82.37;97590.63;5138305;27;20203;-86
2021/12/07 03:04:29;;;;;;;10.03;1.17;;;;;;;14.50;82.75;97587.53;5138258;27;20636;-87
2021/12/07 03:26:07;;;;;;;8.50;0.97;;;;;;;14.12;86.70;97564.69;5137585;27;20170;-87
2021/12/07 03:28:35;;;;;;;1.87;0.40;;;;;;;14.10;87.03;97555.25;5137233;27;20639;-86
2021/12/07 03:31:02;;;;;;;4.90;1.13;;;;;;;14.02;86.25;97558.59;5137200;27;20552;-87
2021/12/07 03:33:28;;;;;;;5.73;1.43;;;;;;;14.07;86.38;97556.38;5137117;27;20175;-86
2021/12/07 03:35:53;;;;;;;2.40;0.70;;;;;;;14.18;85.42;97554.59;5137106;27;20179;-87
2021/12/07 03:38:19;;;;;;;7.73;1.80;;;;;;;14.09;86.17;97559.72;5137323;27;20648;-88
2021/12/07 03:40:45;;;;;;;2.40;0.70;;;;;;;14.00;85.41;97563.19;5136936;27;20172;-86
2021/12/07 03:43:12;;;;;;;2.27;1.03;;;;;;;14.18;85.22;97568.56;5136924;27;20258;-87
2021/12/07 03:45:37;;;;;;;0.77;0.50;;;;;;;14.04;85.69;97556.69;5137470;27;20182;-85
2021/12/07 03:48:08;;;;;;;1.53;0.67;;;;;;;13.94;85.92;97565.56;5118628;27;20199;-87
2021/12/07 03:50:35;;;;;;;7.27;1.43;;;;;;;14.05;86.28;97566.22;5118734;27;20171;-86
2021/12/07 03:53:00;;;;;;;3.80;0.90;;;;;;;14.18;85.23;97562.50;5137044;27;20179;-88
2021/12/07 03:55:27;;;;;;;2.63;1.17;;;;;;;14.31;84.89;97555.13;5118906;27;20179;-88
2021/12/07 03:57:52;;;;;;;2.00;0.60;;;;;;;14.61;83.03;97558.38;5136492;27;20175;-88
2021/12/07 04:00:22;;;;;;;8.10;1.30;;;;;;;14.68;82.07;97566.53;5136673;27;20174;-88
2021/12/07 04:02:50;;;;;;;2.73;1.33;;;;;;;14.75;81.84;97568.44;5118427;27;20171;-89
2021/12/07 04:05:18;;;;;;;4.43;1.20;;;;;;;14.62;82.54;97567.13;5118711;27;20177;-87
2021/12/07 04:07:44;;;;;;;4.97;1.07;;;;;;;14.24;84.41;97567.16;5118302;27;20266;-88
2021/12/07 04:10:13;;;;;;;2.77;1.00;;;;;;;14.43;83.48;97572.44;5118299;27;20210;-88
2021/12/07 04:12:39;;;;;;;1.77;0.60;;;;;;;14.56;82.58;97573.81;5118283;27;20183;-88
2021/12/07 04:15:06;;;;;;;12.40;1.47;;;;;;;14.82;81.52;97573.16;5136335;27;20171;-89
2021/12/07 04:17:32;;;;;;;5.83;0.70;;;;;;;14.78;81.18;97575.22;5136540;27;20231;-88
2021/12/07 04:19:57;;;;;;;5.80;0.60;;;;;;;14.89;81.04;97569.78;5118397;27;20179;-89
2021/12/07 04:22:23;;;;;;;1.27;0.60;;;;;;;14.71;81.57;97577.63;5118450;27;20246;-88
2021/12/07 04:24:48;;;;;;;3.73;1.73;;;;;;;14.86;80.44;97575.34;5118471;27;20187;-88
2021/12/07 04:27:14;;;;;;;4.07;0.83;;;;;;;14.84;80.65;97560.63;5118793;27;20600;-87
2021/12/07 04:29:40;;;;;;;1.80;0.70;;;;;;;14.87;81.13;97571.75;5136036;27;20635;-90
2021/12/07 04:32:06;;;;;;;3.67;0.87;;;;;;;14.83;80.65;97566.91;5118453;27;20537;-89
2021/12/07 04:34:31;;;;;;;2.97;0.80;;;;;;;14.76;81.34;97564.84;5117809;27;20738;-88
2021/12/07 04:36:57;;;;;;;4.33;0.80;;;;;;;14.75;81.55;97575.53;5117832;27;20554;-88
2021/12/07 04:39:22;;;;;;;3.50;1.30;;;;;;;14.64;82.72;97581.81;5118594;27;20194;-88
2021/12/07 04:41:49;;;;;;;4.43;1.10;;;;;;;14.75;82.21;97584.28;5117687;27;20630;-89
2021/12/07 04:44:15;;;;;;;2.43;1.00;;;;;;;14.61;83.44;97578.63;5135713;27;20176;-88
2021/12/07 04:47:04;;;;;;;3.07;1.00;;;;;;;14.29;85.35;97578.13;5117600;27;20187;-88
2021/12/07 05:00:12;;;;;;;2.70;0.97;;;;;;;14.77;83.57;97560.41;5135710;27;20559;-90
2021/12/07 05:02:40;;;;;;;9.10;1.97;;;;;;;15.01;82.09;97566.00;5118447;27;20668;-89
2021/12/07 05:05:07;;;;;;;5.20;1.57;;;;;;;15.01;81.69;97552.81;5117757;27;20648;-89
2021/12/07 05:07:38;;;;;;;2.00;1.73;;;;;;;14.83;82.93;97559.84;5135157;27;20202;-89
2021/12/07 05:12:41;;;;;;;2.87;1.73;;;;;;;14.81;82.51;97566.19;5135757;27;20803;-87
2021/12/07 05:15:43;;;;;;;6.00;1.50;;;;;;;14.87;83.44;97577.03;5135110;27;20219;-90
2021/12/07 05:34:33;;;;;;;4.90;1.87;;;;;;;15.38;81.44;97634.56;5135575;27;20170;-89
2021/12/07 05:39:45;;;;;;;7.70;1.50;;;;;;;14.76;82.53;97607.03;5135006;27;20174;-88
2021/12/07 05:42:12;;;;;;;3.57;1.33;;;;;;;14.71;80.26;97613.72;5134591;27;20179;-89
2021/12/07 05:44:38;;;;;;;8.63;1.27;;;;;;;14.71;79.52;97592.63;5134871;27;20198;-89
2021/12/07 05:47:04;;;;;;;1.37;0.70;;;;;;;14.56;79.82;97583.50;5134756;27;20632;-89
2021/12/07 05:49:30;;;;;;;2.23;0.90;;;;;;;14.50;78.80;97579.63;5135345;27;20172;-89
2021/12/07 05:51:56;;;;;;;2.80;0.80;;;;;;;14.53;78.65;97575.88;5134475;27;20182;-88
2021/12/07 05:54:21;;;;;;;2.40;0.93;;;;;;;14.54;78.26;97567.81;5134378;27;20190;-89
2021/12/07 05:56:47;;;;;;;3.73;1.17;;;;;;;14.40;78.90;97576.19;5134700;27;20175;-89
2021/12/07 05:59:12;;;;;;;24.27;3.37;;;;;;;14.13;80.35;97576.06;5134372;27;20530;-89
2021/12/07 06:01:38;;;;;;;14.33;1.80;;;;;;;14.00;81.28;97584.25;5134346;27;20172;-89
2021/12/07 06:04:04;;;;;;;7.90;2.00;;;;;;;14.09;80.39;97580.81;5134844;27;20234;-89
2021/12/07 06:06:29;;;;;;;4.30;0.90;;;;;;;14.13;80.15;97571.63;5134284;27;20170;-88
2021/12/07 06:08:55;;;;;;;7.70;1.70;;;;;;;14.12;80.69;97579.69;5116087;27;20274;-89
2021/12/07 06:11:23;;;;;;;16.03;3.83;;;;;;;14.07;80.90;97571.38;5116226;28;20247;-88
2021/12/07 06:13:49;;;;;;;12.80;2.73;;;;;;;13.96;81.23;97568.88;5134511;27;20186;-88
2021/12/07 06:16:16;;;;;;;9.37;3.17;;;;;;;13.83;81.76;97561.28;5134195;28;20531;-88
2021/12/07 06:18:42;;;;;;;2.30;1.30;;;;;;;13.92;81.45;97562.22;5134450;28;20175;-88
2021/12/07 06:21:08;;;;;;;13.93;1.30;;;;;;;14.16;80.71;97563.44;5134689;27;20189;-89
2021/12/07 06:23:33;;;;;;;4.27;1.43;;;;;;;14.16;79.63;97559.97;5138566;27;20200;-87
2021/12/07 06:25:59;;;;;;;22.57;4.97;;;;;;;13.74;81.47;97543.66;5138606;27;20175;-88
2021/12/07 06:28:25;;;;;;;16.13;2.27;;;;;;;13.51;83.34;97547.53;5138622;27;20201;-86
2021/12/07 06:30:51;;;;;;;27.60;6.10;;;;;;;13.47;83.56;97546.97;5138303;27;20551;-88
2021/12/07 06:33:19;;;;;;;8.97;4.13;;;;;;;13.74;82.08;97527.00;5138279;27;20682;-88
2021/12/07 06:35:46;;;;;;;14.57;2.63;;;;;;;13.49;83.21;97528.41;5138209;27;20179;-88
2021/12/07 06:38:11;;;;;;;20.70;2.50;;;;;;;13.52;83.98;97538.69;5138175;27;20632;-87
2021/12/07 06:40:37;;;;;;;7.50;1.80;;;;;;;13.52;84.29;97543.94;5138124;27;20238;-88
2021/12/07 06:43:03;;;;;;;3.87;1.53;;;;;;;13.57;84.16;97543.53;5138360;27;20230;-87
2021/12/07 06:45:29;;;;;;;4.47;1.07;;;;;;;13.61;83.86;97548.38;5119982;27;20214;-87
2021/12/07 06:47:56;;;;;;;2.70;1.07;;;;;;;13.50;83.88;97551.97;5119835;27;20198;-87
2021/12/07 06:50:23;;;;;;;5.63;2.13;;;;;;;13.38;84.59;97557.50;5120733;27;20221;-87
2021/12/07 06:52:49;;;;;;;9.83;1.93;;;;;;;13.49;85.17;97554.75;5137943;27;20254;-87
2021/12/07 06:55:15;;;;;;;11.00;4.27;;;;;;;13.61;84.83;97553.63;5107901;28;20232;-88
2021/12/07 06:57:40;;;;;;;5.23;1.87;;;;;;;13.71;84.23;97543.94;5116603;28;20211;-87
2021/12/07 07:00:10;;;;;;;1.97;1.10;;;;;;;13.42;87.16;97541.28;5118530;27;20186;-87
2021/12/07 07:02:36;;;;;;;7.37;1.33;;;;;;;13.39;88.08;97544.19;5119525;27;20175;-87
2021/12/07 07:05:02;;;;;;;5.00;1.63;;;;;;;13.46;87.65;97555.84;5119654;27;20182;-87
2021/12/07 07:07:27;;;;;;;2.90;1.50;;;;;;;13.70;87.05;97552.81;5119501;27;20194;-87
2021/12/07 07:09:53;;;;;;;13.43;2.77;;;;;;;13.89;86.11;97555.41;5137563;27;20175;-87
2021/12/07 07:12:18;;;;;;;12.20;2.20;;;;;;;13.81;86.59;97559.75;5137899;27;20546;-87
2021/12/07 07:14:45;;;;;;;13.87;3.33;;;;;;;13.89;87.01;97550.16;5119414;27;20247;-88
2021/12/07 07:17:11;;;;;;;7.37;1.90;;;;;;;13.84;86.45;97543.63;5138053;27;20718;-87
2021/12/07 07:19:36;;;;;;;4.93;2.13;;;;;;;13.93;86.48;97554.19;5119311;27;20674;-88
2021/12/07 07:22:02;;;;;;;3.93;2.07;;;;;;;13.82;86.15;97562.22;5119272;27;20183;-87
2021/12/07 07:24:32;;;;;;;7.37;1.80;;;;;;;13.94;85.31;97555.03;5137320;27;20183;-89
2021/12/07 07:26:59;;;;;;;5.63;2.83;;;;;;;13.80;85.54;97542.28;5119132;27;20272;-87
2021/12/07 07:29:24;;;;;;;3.73;1.67;;;;;;;14.01;84.73;97546.41;5137100;27;20633;-88
2021/12/07 07:31:50;;;;;;;9.63;2.37;;;;;;;14.29;83.24;97551.75;5136675;27;20258;-88
2021/12/07 07:34:16;;;;;;;4.17;1.77;;;;;;;14.45;81.79;97549.41;5137380;27;20604;-89
2021/12/07 07:36:41;;;;;;;6.00;2.13;;;;;;;14.28;81.71;97542.22;5118932;27;20615;-89
2021/12/07 07:39:07;;;;;;;5.07;1.17;;;;;;;14.11;82.20;97539.31;5137308;27;20597;-88
2021/12/07 07:41:32;;;;;;;2.60;1.97;;;;;;;14.26;81.96;97533.59;5137555;27;20175;-89
2021/12/07 07:43:58;;;;;;;4.60;1.87;;;;;;;14.30;81.33;97533.19;5136959;27;20627;-88
2021/12/07 07:46:23;;;;;;;6.93;1.57;;;;;;;14.55;80.57;97532.56;5137164;27;20173;-89
2021/12/07 07:48:49;;;;;;;5.10;1.20;;;;;;;14.72;79.92;97537.09;5136765;27;20537;-89
2021/12/07 07:51:15;;;;;;;8.80;2.27;;;;;;;14.49;80.46;97540.25;5136765;27;20171;-89
2021/12/07 07:53:41;;;;;;;3.67;1.67;;;;;;;14.46;81.05;97538.72;5136768;27;20616;-87
2021/12/07 07:56:07;;;;;;;8.97;1.67;;;;;;;14.70;80.03;97540.88;5119105;27;20514;-89
2021/12/07 07:58:33;;;;;;;10.13;2.60;;;;;;;14.83;79.49;97541.38;5136619;27;20189;-89
2021/12/07 08:00:59;;;;;;;9.57;2.97;;;;;;;14.86;79.30;97542.88;5136568;27;20625;-90
2021/12/07 08:03:24;;;;;;;9.17;1.77;;;;;;;14.83;79.83;97554.56;5136563;27;20172;-89
2021/12/07 08:05:50;;;;;;;5.13;2.13;;;;;;;14.86;79.14;97551.59;5136439;27;20243;-88
2021/12/07 08:08:15;;;;;;;9.20;1.97;;;;;;;14.82;79.94;97558.16;5136360;27;20314;-90
2021/12/07 08:10:41;;;;;;;6.30;2.17;;;;;;;14.77;80.13;97555.97;5136409;27;20647;-87
2021/12/07 08:13:08;;;;;;;7.77;2.00;;;;;;;14.87;80.18;97560.34;5136343;27;20593;-89
2021/12/07 08:15:39;;;;;;;4.33;1.63;;;;;;;14.70;81.16;97554.88;5118196;27;20547;-89
2021/12/07 08:18:06;;;;;;;8.50;2.03;;;;;;;15.00;80.36;97555.56;5118168;27;20175;-90
2021/12/07 08:20:32;;;;;;;4.87;2.17;;;;;;;14.83;79.78;97564.28;5118304;27;20210;-90
2021/12/07 08:22:58;;;;;;;6.50;2.37;;;;;;;14.70;80.86;97554.06;5117962;27;20236;-89
2021/12/07 08:25:24;;;;;;;11.47;2.03;;;;;;;15.02;79.95;97553.59;5118017;27;20201;-89
2021/12/07 08:27:49;;;;;;;7.33;2.43;;;;;;;15.09;79.38;97557.34;5135972;27;20199;-89
2021/12/07 08:30:16;;;;;;;6.90;1.87;;;;;;;15.21;79.08;97554.34;5117955;27;20174;-89
2021/12/07 08:32:45;;;;;;;6.60;2.50;;;;;;;15.07;79.75;97548.72;5135952;27;20181;-90
2021/12/07 08:35:21;;;;;;;17.43;2.50;;;;;;;15.30;79.26;97552.66;5117785;27;20634;-90
2021/12/07 08:37:47;;;;;;;10.50;2.03;;;;;;;15.29;78.91;97546.53;5117818;27;20233;-90
2021/12/07 08:40:17;;;;;;;8.30;1.97;;;;;;;15.43;78.82;97544.34;5135781;27;20609;-90
2021/12/07 08:42:42;;;;;;;9.33;2.30;;;;;;;15.51;78.15;97545.31;5135748;27;20177;-89
2021/12/07 08:45:09;;;;;;;7.03;2.23;;;;;;;15.16;79.32;97539.94;5134818;27;20179;-90
2021/12/07 08:47:35;;;;;;;3.93;1.90;;;;;;;15.01;80.97;97539.63;5117518;27;20244;-89
2021/12/07 08:50:03;;;;;;;6.33;1.50;;;;;;;15.27;79.66;97537.94;5135609;27;20175;-89
2021/12/07 08:52:29;;;;;;;5.53;2.23;;;;;;;15.42;79.05;97542.69;5135509;27;20235;-91
2021/12/07 09:00:36;;;;;;;5.93;1.60;;;;;;;15.42;80.34;97524.19;5136007;27;20164;-90
2021/12/07 09:03:02;;;;;;;4.57;1.50;;;;;;;15.67;79.59;97515.59;5117311;27;20555;-90
2021/12/07 09:05:28;;;;;;;10.40;2.77;;;;;;;15.80;79.22;97516.03;5135652;27;20180;-90
2021/12/07 09:07:53;;;;;;;7.67;3.10;;;;;;;15.76;78.05;97506.72;5135172;27;20193;-90
2021/12/07 09:10:19;;;;;;;11.73;3.30;;;;;;;15.85;78.28;97501.34;5135469;27;20176;-88
2021/12/07 09:12:45;;;;;;;9.00;3.37;;;;;;;15.45;80.24;97498.34;5135133;27;20225;-90
2021/12/07 09:15:10;;;;;;;3.03;1.60;;;;;;;15.31;80.99;97497.03;5117109;27;20171;-91
2021/12/07 09:17:37;;;;;;;10.03;2.27;;;;;;;15.31;80.70;97501.50;5135359;27;20239;-90
2021/12/07 09:20:11;;;;;;;9.63;1.27;;;;;;;15.54;79.42;97496.66;5135547;27;20238;-90
2021/12/07 09:22:37;;;;;;;5.00;2.20;;;;;;;15.41;78.76;97491.69;5135296;27;20157;-91
2021/12/07 09:25:04;;;;;;;5.37;1.57;;;;;;;15.56;78.54;97489.41;5116745;27;20196;-91
2021/12/07 09:27:29;;;;;;;4.63;1.70;;;;;;;15.74;77.24;97480.47;5116671;27;20562;-90
2021/12/07 09:29:55;;;;;;;3.47;1.47;;;;;;;15.53;76.38;97473.84;5135167;27;20170;-91
2021/12/07 09:32:20;;;;;;;4.23;1.53;;;;;;;15.57;76.95;97469.91;5134888;27;20301;-91
2021/12/07 09:34:46;;;;;;;2.77;1.50;;;;;;;15.59;76.56;97467.97;5117859;27;20238;-89
2021/12/07 09:37:12;;;;;;;8.60;1.40;;;;;;;15.55;76.68;97461.31;5134827;27;20175;-91
2021/12/07 09:39:38;;;;;;;10.03;1.83;;;;;;;15.20;77.37;97457.66;5134983;27;20657;-91
2021/12/07 09:42:03;;;;;;;8.30;1.43;;;;;;;15.14;78.53;97462.72;5134708;27;20224;-89
2021/12/07 09:44:29;;;;;;;8.93;2.20;;;;;;;15.30;78.48;97461.06;5135177;27;20174;-90
2021/12/07 09:46:55;;;;;;;14.77;2.30;;;;;;;15.39;77.52;97449.59;5134557;27;20276;-90
2021/12/07 09:49:20;;;;;;;5.77;1.50;;;;;;;15.44;76.98;97449.16;5134485;27;20192;-88
2021/12/07 09:51:46;;;;;;;12.07;2.50;;;;;;;15.48;76.38;97442.63;5134774;27;20633;-90
2021/12/07 09:54:11;;;;;;;7.93;1.83;;;;;;;15.57;76.09;97443.50;5134468;27;20246;-90
2021/12/07 09:56:38;;;;;;;9.63;2.30;;;;;;;15.52;76.10;97437.84;5134269;27;20174;-89
2021/12/07 09:59:05;;;;;;;3.53;1.30;;;;;;;15.30;76.35;97429.38;5134431;27;20208;-89
2021/12/07 10:01:31;;;;;;;12.47;2.77;;;;;;;15.52;75.09;97424.66;5134607;27;20178;-90
2021/12/07 10:03:57;;;;;;;7.10;1.27;;;;;;;15.41;74.10;97428.31;5116321;27;20181;-89
2021/12/07 10:06:23;;;;;;;1.13;0.60;;;;;;;15.34;74.04;97422.84;5116236;28;20518;-89
2021/12/07 10:08:49;;;;;;;4.33;1.47;;;;;;;15.42;74.65;97419.44;5134509;27;20196;-91
2021/12/07 10:11:16;;;;;;;6.90;2.03;;;;;;;15.40;74.06;97426.69;5134262;27;20238;-88
2021/12/07 10:13:45;;;;;;;11.57;1.53;;;;;;;15.57;73.52;97414.47;5116420;27;20561;-89
2021/12/07 10:16:13;;;;;;;8.67;1.27;;;;;;;15.21;73.04;97411.84;5134454;28;20176;-90
2021/12/07 10:18:41;;;;;;;9.47;1.47;;;;;;;15.39;73.32;97411.81;5116402;28;20181;-90
2021/12/07 10:21:21;;;;;;;4.40;1.70;;;;;;;15.72;72.19;97402.38;5134434;28;20168;-89
2021/12/07 10:24:21;;;;;;;4.60;0.90;;;;;;;15.62;72.36;97409.53;5134183;28;20238;-90
2021/12/07 10:26:47;;;;;;;3.37;1.20;;;;;;;15.79;71.04;97403.41;5119887;28;20273;-90
2021/12/07 10:29:19;;;;;;;3.33;0.93;;;;;;;15.89;70.96;97401.47;5134030;28;20243;-90
2021/12/07 10:31:47;;;;;;;7.70;1.03;;;;;;;15.48;73.03;97402.19;5134377;28;20616;-88
2021/12/07 10:34:25;;;;;;;4.87;1.27;;;;;;;15.85;72.16;97390.38;5134010;28;20176;-90
2021/12/07 10:37:04;;;;;;;4.33;1.53;;;;;;;15.59;72.61;97389.56;5134017;28;20258;-89
2021/12/07 10:39:37;;;;;;;12.40;3.83;;;;;;;15.37;73.33;97390.84;5115957;28;20174;-86
2021/12/07 10:42:08;;;;;;;7.27;3.03;;;;;;;15.38;74.21;97387.22;5134271;28;20270;-89
2021/12/07 10:44:37;;;;;;;4.30;1.47;;;;;;;15.14;75.07;97384.41;5134224;28;20180;-86
2021/12/07 10:47:14;;;;;;;4.67;1.37;;;;;;;15.28;75.50;97386.47;5133938;28;20255;-89
2021/12/07 10:49:54;;;;;;;3.70;1.00;;;;;;;15.27;75.30;97387.47;5134258;28;20165;-90
2021/12/07 10:52:27;;;;;;;2.03;0.90;;;;;;;15.42;74.97;97373.72;5115827;28;20659;-89
2021/12/07 10:55:15;;;;;;;5.93;1.03;;;;;;;15.31;75.03;97369.50;5133845;28;20175;-90
2021/12/07 10:57:53;;;;;;;6.90;2.17;;;;;;;15.36;74.79;97378.63;5134463;28;20156;-89
2021/12/07 11:00:27;;;;;;;5.43;1.70;;;;;;;14.99;77.09;97377.97;5134149;28;20633;-88
2021/12/07 11:02:57;;;;;;;2.53;0.97;;;;;;;15.00;76.91;97384.91;5115728;28;20256;-88
2021/12/07 11:05:32;;;;;;;3.90;1.30;;;;;;;15.09;76.34;97380.56;5116260;28;20654;-89
2021/12/07 11:08:00;;;;;;;5.77;0.97;;;;;;;15.05;76.82;97384.44;5135590;27;20180;-89
2021/12/07 11:10:30;;;;;;;1.97;1.20;;;;;;;15.17;77.50;97378.78;5120097;27;20202;-90
2021/12/07 11:15:28;;;;;;;8.00;1.63;;;;;;;15.32;78.55;97371.19;5137478;27;20183;-90
2021/12/07 11:18:04;;;;;;;5.80;1.07;;;;;;;15.33;78.11;97363.09;5137782;27;20152;-90
2021/12/07 11:20:31;;;;;;;10.63;2.87;;;;;;;15.59;77.16;97368.41;5137928;27;20178;-89
2021/12/07 11:23:12;;;;;;;5.87;1.27;;;;;;;15.59;76.49;97376.34;5137711;27;20649;-89
2021/12/07 11:31:30;;;;;;;10.23;2.50;;;;;;;15.53;75.54;97370.88;5137306;27;20175;-90
2021/12/07 11:34:27;;;;;;;9.13;2.43;;;;;;;15.46;75.33;97364.56;5137739;27;20162;-89
2021/12/07 11:37:03;;;;;;;7.93;1.80;;;;;;;15.34;75.18;97358.66;5137383;27;20549;-89
2021/12/07 11:39:36;;;;;;;17.27;2.67;;;;;;;15.36;75.19;97354.88;5137380;27;20172;-89
2021/12/07 11:42:04;;;;;;;6.07;1.37;;;;;;;15.27;75.55;97353.16;5137299;27;20180;-89
2021/12/07 11:44:31;;;;;;;10.40;1.90;;;;;;;15.44;74.50;97337.44;5118883;27;20185;-90
2021/12/07 11:46:59;;;;;;;12.13;1.40;;;;;;;15.31;74.54;97336.03;5118829;27;20176;-88
2021/12/07 11:49:27;;;;;;;7.50;1.23;;;;;;;15.18;75.25;97335.59;5136761;27;20202;-90
2021/12/07 11:51:56;;;;;;;7.10;2.03;;;;;;;15.44;74.61;97348.81;5136785;27;20182;-90
2021/12/07 11:54:25;;;;;;;9.40;2.50;;;;;;;15.27;74.92;97342.63;5118603;27;20629;-89
2021/12/07 11:56:52;;;;;;;8.47;2.00;;;;;;;15.11;75.77;97337.19;5136728;27;20174;-89
2021/12/07 11:59:18;;;;;;;5.53;2.00;;;;;;;15.48;74.38;97334.38;5136878;27;20174;-87
2021/12/07 12:01:46;;;;;;;6.13;1.50;;;;;;;15.27;74.07;97326.78;5136949;27;20173;-88
2021/12/07 12:04:14;;;;;;;2.53;0.80;;;;;;;15.27;74.12;97321.50;5136844;27;20191;-89
2021/12/07 12:06:42;;;;;;;4.33;1.47;;;;;;;15.43;73.14;97315.50;5136794;27;20621;-88
2021/12/07 12:09:09;;;;;;;3.77;1.80;;;;;;;15.20;74.20;97312.50;5136407;27;20197;-90
2021/12/07 12:12:02;;;;;;;3.27;1.10;;;;;;;15.38;72.99;97310.66;5118338;27;20537;-89
2021/12/07 12:14:48;;;;;;;4.47;1.57;;;;;;;15.68;72.71;97308.56;5136965;27;20663;-89
2021/12/07 12:17:47;;;;;;;7.73;1.57;;;;;;;15.88;71.74;97304.69;5136600;27;20185;-89
2021/12/07 12:20:31;;;;;;;2.83;0.97;;;;;;;15.43;71.17;97304.09;5136570;27;20173;-88
2021/12/07 12:23:15;;;;;;;2.43;1.30;;;;;;;15.61;71.47;97295.19;5136049;27;20182;-89
2021/12/07 12:25:40;;;;;;;6.37;1.67;;;;;;;15.48;71.62;97304.50;5118066;27;20188;-89
2021/12/07 12:28:06;;;;;;;7.77;1.43;;;;;;;15.09;72.94;97299.59;5118820;27;20206;-89
2021/12/07 12:30:40;;;;;;;2.37;0.97;;;;;;;15.12;73.79;97299.25;5118231;27;20670;-88
2021/12/07 12:33:12;;;;;;;3.40;1.20;;;;;;;15.37;73.80;97295.81;5136884;27;20189;-90
2021/12/07 12:35:42;;;;;;;4.27;1.50;;;;;;;15.42;72.71;97286.59;5117927;27;20177;-87
2021/12/07 12:38:31;;;;;;;5.97;1.47;;;;;;;15.38;72.35;97286.91;5118155;27;20267;-88
2021/12/07 12:41:09;;;;;;;6.90;1.50;;;;;;;15.58;71.78;97282.28;5117802;27;20645;-89
2021/12/07 12:43:41;;;;;;;7.27;1.63;;;;;;;15.76;70.19;97274.28;5118004;27;20320;-89
2021/12/07 12:46:08;;;;;;;2.43;0.83;;;;;;;15.61;68.85;97275.84;5118218;27;20245;-89
2021/12/07 12:48:33;;;;;;;3.17;0.67;;;;;;;15.50;68.58;97276.97;5118439;27;20202;-89
2021/12/07 12:50:59;;;;;;;1.10;0.60;;;;;;;15.26;68.44;97274.13;5117907;27;20615;-89
2021/12/07 12:53:31;;;;;;;1.33;0.50;;;;;;;15.26;68.25;97277.59;5117499;27;20546;-88
2021/12/07 12:56:01;;;;;;;3.33;1.17;;;;;;;15.29;67.89;97274.66;5135864;27;20647;-89
2021/12/07 12:58:30;;;;;;;0.60;0.40;;;;;;;14.96;67.59;97270.13;5117448;27;20170;-89
2021/12/07 13:01:12;;;;;;;0.80;0.40;;;;;;;15.04;67.92;97264.88;5135769;27;20619;-89
2021/12/07 13:03:44;;;;;;;1.40;0.50;;;;;;;15.11;66.95;97263.31;5118228;27;20684;-88
2021/12/07 13:06:43;;;;;;;7.50;1.23;;;;;;;15.19;66.65;97265.19;5118105;27;20173;-89
2021/12/07 13:09:17;;;;;;;1.87;0.43;;;;;;;15.21;66.75;97264.03;5117774;27;20198;-89
2021/12/07 13:12:02;;;;;;;3.33;0.93;;;;;;;15.00;67.44;97260.91;5117512;27;20174;-88
2021/12/07 13:14:36;;;;;;;2.70;0.67;;;;;;;14.65;68.69;97266.22;5118034;27;20164;-89
2021/12/07 13:17:13;;;;;;;4.33;1.27;;;;;;;14.89;68.15;97258.50;5117111;27;20185;-90
2021/12/07 13:20:16;;;;;;;2.60;0.90;;;;;;;14.95;68.25;97268.47;5117097;27;20168;-89
2021/12/07 13:23:00;;;;;;;5.47;1.37;;;;;;;14.93;67.89;97265.16;5117298;27;20273;-88
2021/12/07 13:25:40;;;;;;;2.43;0.83;;;;;;;15.03;67.08;97271.16;5135600;27;20220;-89
2021/12/07 13:28:22;;;;;;;6.73;0.80;;;;;;;14.83;68.04;97269.69;5116844;27;20195;-89
2021/12/07 13:31:06;;;;;;;2.70;1.07;;;;;;;15.06;67.50;97278.78;5134766;27;20177;-88